Time;durP1;ratioP1;P1;durP2;ratioP2;P2;SDS_P1;SDS_P2;PMS_P1;PMS_P2;Temp;Humidity;BMP_temperature;BMP_pressure;BME280_temperature;BME280_humidity;BME280_pressure;Samples;Min_cycle;Max_cycle;Signal;HPM_P1;HPM_P2
2022/10/26 00:00:44;;;;;;;16.38;8.38;;;11.60;99.90;;;;;;5099947;28;20063;-75
2022/10/26 00:03:10;;;;;;;14.60;9.30;;;11.40;99.90;;;;;;5097390;28;20057;-76
2022/10/26 00:05:36;;;;;;;15.55;8.82;;;11.40;99.90;;;;;;5091546;28;20302;-74
2022/10/26 00:08:02;;;;;;;12.80;8.25;;;11.50;99.90;;;;;;5120707;27;20016;-74
2022/10/26 00:10:27;;;;;;;13.20;9.32;;;11.40;99.90;;;;;;5100137;28;20039;-75
2022/10/26 00:12:53;;;;;;;15.25;8.82;;;11.40;99.90;;;;;;5089892;28;20024;-75
2022/10/26 00:15:22;;;;;;;16.30;9.02;;;11.40;99.90;;;;;;5083708;28;20142;-75
2022/10/26 00:17:49;;;;;;;13.15;8.55;;;11.40;99.90;;;;;;5094598;28;20035;-74
2022/10/26 00:20:42;;;;;;;12.65;9.10;;;11.40;99.90;;;;;;5116909;28;20050;-76
2022/10/26 00:23:08;;;;;;;13.63;9.45;;;11.30;99.90;;;;;;5106281;28;20112;-76
2022/10/26 00:25:33;;;;;;;11.80;9.38;;;11.40;99.90;;;;;;5081830;28;20975;-75
2022/10/26 00:28:01;;;;;;;14.88;9.18;;;11.40;99.90;;;;;;5102433;28;20038;-76
2022/10/26 00:34:27;;;;;;;13.80;9.50;;;11.50;99.90;;;;;;5073184;28;20042;-75
2022/10/26 00:36:56;;;;;;;15.50;9.77;;;11.40;99.90;;;;;;5113412;28;20059;-75
2022/10/26 00:39:22;;;;;;;17.88;10.15;;;11.30;99.90;;;;;;5100049;28;20055;-76
2022/10/26 00:41:47;;;;;;;14.07;10.00;;;11.30;99.90;;;;;;5081624;28;20188;-76
2022/10/26 00:44:49;;;;;;;15.82;10.15;;;11.20;99.90;;;;;;5092430;28;20080;-76
2022/10/26 00:47:54;;;;;;;18.58;9.68;;;11.20;99.90;;;;;;5101034;28;20353;-80
2022/10/26 00:50:28;;;;;;;17.88;11.07;;;11.20;99.90;;;;;;5095061;28;20028;-76
2022/10/26 00:53:46;;;;;;;19.92;10.68;;;11.30;99.90;;;;;;5106890;28;20063;-77
2022/10/26 00:56:12;;;;;;;13.73;10.05;;;11.50;99.90;;;;;;5104408;28;20051;-77
2022/10/26 00:58:38;;;;;;;15.93;10.32;;;11.10;99.90;;;;;;5092251;28;20047;-78
2022/10/26 01:01:06;;;;;;;12.93;9.43;;;11.10;99.90;;;;;;5115456;28;20070;-78
2022/10/26 01:03:55;;;;;;;16.77;10.38;;;9.50;99.90;;;;;;5110107;28;20072;-75
2022/10/26 01:06:23;;;;;;;13.43;8.23;;;11.10;99.90;;;;;;5104744;28;20079;-74
2022/10/26 01:08:50;;;;;;;19.23;10.50;;;11.10;99.90;;;;;;5107398;28;20184;-77
2022/10/26 01:11:17;;;;;;;12.80;10.77;;;11.10;99.90;;;;;;5104997;28;20445;-74
2022/10/26 01:13:44;;;;;;;14.25;9.35;;;11.20;99.90;;;;;;5106663;28;20028;-75
2022/10/26 01:16:51;;;;;;;14.40;10.32;;;11.20;99.90;;;;;;5108517;28;20330;-73
2022/10/26 01:19:59;;;;;;;17.63;10.90;;;11.10;99.90;;;;;;5103336;28;20063;-77
2022/10/26 01:22:28;;;;;;;17.88;11.43;;;11.20;99.90;;;;;;5085193;28;20084;-73
2022/10/26 01:24:54;;;;;;;14.73;10.07;;;11.00;99.90;;;;;;5104015;28;20035;-76
2022/10/26 01:27:40;;;;;;;19.00;11.52;;;11.00;99.90;;;;;;5114870;28;20036;-75
2022/10/26 01:30:38;;;;;;;15.02;11.13;;;11.00;99.90;;;;;;5106364;28;20031;-77
2022/10/26 01:33:46;;;;;;;18.05;11.55;;;11.20;99.90;;;;;;5093863;28;20042;-74
2022/10/26 01:36:21;;;;;;;17.20;11.32;;;11.10;99.90;;;;;;5092910;28;20118;-77
2022/10/26 01:39:01;;;;;;;17.85;11.20;;;10.90;99.90;;;;;;5087268;28;20043;-74
2022/10/26 01:42:10;;;;;;;15.48;11.35;;;11.10;99.90;;;;;;5103158;28;20086;-74
2022/10/26 01:44:59;;;;;;;17.17;11.02;;;10.90;99.90;;;;;;5059188;28;20039;-74
2022/10/26 01:47:26;;;;;;;14.68;10.35;;;10.80;99.90;;;;;;5103380;28;20052;-76
2022/10/26 01:50:22;;;;;;;15.68;11.77;;;11.00;99.90;;;;;;5083888;28;20341;-76
2022/10/26 01:53:02;;;;;;;18.90;11.35;;;10.80;99.90;;;;;;5032399;28;20061;-77
2022/10/26 01:55:52;;;;;;;16.70;11.85;;;11.00;99.90;;;;;;5062537;27;20213;-76
2022/10/26 01:58:26;;;;;;;14.98;11.20;;;10.80;99.90;;;;;;5097231;28;20095;-76
2022/10/26 02:01:21;;;;;;;16.33;12.00;;;10.90;99.90;;;;;;5097780;28;20057;-75
2022/10/26 02:04:04;;;;;;;16.92;11.45;;;10.80;99.90;;;;;;5110291;28;20059;-75
2022/10/26 02:10:41;;;;;;;17.55;12.02;;;10.80;99.90;;;;;;5041056;28;20048;-76
2022/10/26 02:13:12;;;;;;;16.38;12.02;;;10.80;99.90;;;;;;5112150;28;20094;-76
2022/10/26 02:15:42;;;;;;;20.75;12.05;;;10.80;99.90;;;;;;5097534;28;20028;-75
2022/10/26 02:18:26;;;;;;;19.50;12.73;;;10.50;99.90;;;;;;5086761;28;20023;-75
2022/10/26 02:20:58;;;;;;;17.60;13.18;;;10.50;99.90;;;;;;5117142;27;20386;-77
2022/10/26 02:23:26;;;;;;;15.98;13.07;;;10.70;99.90;;;;;;5101929;28;20028;-75
2022/10/26 02:25:55;;;;;;;16.73;12.20;;;10.60;99.90;;;;;;5089046;28;20098;-75
2022/10/26 02:28:32;;;;;;;22.92;13.85;;;10.60;99.90;;;;;;5102667;28;20263;-75
2022/10/26 02:31:00;;;;;;;22.67;13.85;;;10.50;99.90;;;;;;5102581;28;20039;-74
2022/10/26 02:33:29;;;;;;;22.20;14.35;;;10.50;99.90;;;;;;5106269;28;20024;-76
2022/10/26 02:35:59;;;;;;;22.15;13.27;;;10.60;99.90;;;;;;5086266;28;20069;-75
2022/10/26 02:38:26;;;;;;;20.77;13.18;;;10.50;99.90;;;;;;5089878;28;20035;-76
2022/10/26 02:40:53;;;;;;;17.45;11.95;;;10.40;99.90;;;;;;5101464;28;20066;-76
2022/10/26 02:43:21;;;;;;;17.67;12.73;;;10.50;99.90;;;;;;5090505;28;20034;-75
2022/10/26 02:45:53;;;;;;;18.80;12.90;;;10.60;99.90;;;;;;5060373;28;20221;-77
2022/10/26 02:48:20;;;;;;;22.80;13.57;;;10.60;99.90;;;;;;5115112;28;20031;-76
2022/10/26 02:51:16;;;;;;;15.68;12.75;;;10.40;99.90;;;;;;5102866;28;20028;-75
2022/10/26 02:53:52;;;;;;;17.23;12.20;;;10.50;99.90;;;;;;5114778;28;20397;-76
2022/10/26 02:56:27;;;;;;;16.25;11.85;;;10.30;99.90;;;;;;5087356;28;20051;-76
2022/10/26 02:59:03;;;;;;;17.55;13.43;;;10.50;99.90;;;;;;5108596;28;20075;-75
2022/10/26 03:01:31;;;;;;;16.90;13.25;;;10.50;99.90;;;;;;5110180;28;20106;-76
2022/10/26 03:03:58;;;;;;;20.10;13.77;;;10.30;99.90;;;;;;5107032;28;20036;-76
2022/10/26 03:06:31;;;;;;;20.15;14.50;;;12.60;99.90;;;;;;5073921;28;20103;-76
2022/10/26 03:08:57;;;;;;;16.42;12.45;;;10.30;99.90;;;;;;5072253;28;20043;-74
2022/10/26 03:11:22;;;;;;;17.73;12.90;;;10.20;99.90;;;;;;5082538;28;20090;-74
2022/10/26 03:13:48;;;;;;;20.15;13.32;;;8.30;99.90;;;;;;5106630;28;20024;-76
2022/10/26 03:16:14;;;;;;;15.75;12.15;;;10.30;99.90;;;;;;5103011;28;20036;-75
2022/10/26 03:18:45;;;;;;;23.80;14.07;;;10.10;99.90;;;;;;5084146;28;20027;-75
2022/10/26 03:21:11;;;;;;;18.02;13.25;;;10.10;99.90;;;;;;5081628;28;20051;-76
2022/10/26 03:23:43;;;;;;;19.77;14.40;;;10.00;99.90;;;;;;5102240;28;20044;-75
2022/10/26 03:26:09;;;;;;;20.00;14.52;;;10.00;99.90;;;;;;5082024;28;20027;-75
2022/10/26 03:28:35;;;;;;;19.85;14.10;;;9.90;99.90;;;;;;5072731;28;20032;-76
2022/10/26 03:31:02;;;;;;;19.83;14.23;;;10.00;99.90;;;;;;5111447;28;20066;-76
2022/10/26 03:33:28;;;;;;;23.40;14.45;;;10.00;99.90;;;;;;5076339;28;20039;-75
2022/10/26 03:35:55;;;;;;;17.90;12.75;;;9.80;99.90;;;;;;5083070;28;20024;-77
2022/10/26 03:42:13;;;;;;;16.20;12.15;;;10.00;99.90;;;;;;4990630;28;20033;-76
2022/10/26 03:44:38;;;;;;;22.60;13.07;;;9.80;99.90;;;;;;5008005;28;20041;-77
2022/10/26 03:47:04;;;;;;;22.65;13.68;;;9.70;99.90;;;;;;5047313;28;20048;-77
2022/10/26 03:49:30;;;;;;;22.83;13.18;;;9.70;99.90;;;;;;5027514;28;20037;-77
2022/10/26 03:51:55;;;;;;;17.67;13.10;;;9.70;99.90;;;;;;5028820;28;20214;-76
2022/10/26 03:54:21;;;;;;;24.85;14.57;;;8.70;99.90;;;;;;5060496;28;20051;-76
2022/10/26 03:56:47;;;;;;;18.42;14.02;;;9.70;99.90;;;;;;5068551;28;20058;-76
2022/10/26 04:03:09;;;;;;;19.55;13.38;;;8.10;99.90;;;;;;5047792;28;20048;-76
2022/10/26 04:05:35;;;;;;;22.27;13.93;;;9.80;99.90;;;;;;5026807;28;20285;-78
2022/10/26 04:08:04;;;;;;;20.30;13.27;;;10.20;99.90;;;;;;5012799;28;20110;-77
2022/10/26 04:10:30;;;;;;;23.48;14.35;;;9.80;99.90;;;;;;5060528;28;20048;-78
2022/10/26 04:12:59;;;;;;;25.48;16.25;;;10.10;99.90;;;;;;5100522;28;20989;-77
2022/10/26 04:15:24;;;;;;;21.67;14.05;;;9.60;99.90;;;;;;5105397;28;20229;-76
2022/10/26 04:18:00;;;;;;;24.10;14.93;;;9.80;99.90;;;;;;5114605;28;20024;-76
2022/10/26 04:20:27;;;;;;;19.83;14.25;;;9.80;99.90;;;;;;5093671;28;20044;-77
2022/10/26 04:22:58;;;;;;;23.42;15.05;;;9.90;99.90;;;;;;5105068;28;20046;-77
2022/10/26 04:25:24;;;;;;;24.27;14.60;;;9.70;99.90;;;;;;5074175;28;20043;-79
2022/10/26 04:28:23;;;;;;;;;;;;;;;;;;;;;
2022/10/26 04:30:54;;;;;;;25.83;15.32;;;9.70;99.90;;;;;;5096259;28;20242;-77
2022/10/26 04:33:22;;;;;;;23.77;14.93;;;9.80;99.90;;;;;;5123256;28;20032;-76
2022/10/26 04:35:48;;;;;;;22.63;14.50;;;9.90;99.90;;;;;;5109165;28;20279;-78
2022/10/26 04:38:14;;;;;;;21.15;13.60;;;9.70;99.90;;;;;;5082913;28;20040;-77
2022/10/26 04:40:39;;;;;;;20.15;14.80;;;9.80;99.90;;;;;;5094603;28;21108;-77
2022/10/26 04:43:05;;;;;;;23.88;14.43;;;9.70;99.90;;;;;;5092948;28;20028;-78
2022/10/26 04:45:31;;;;;;;23.92;14.77;;;9.70;99.90;;;;;;5105798;28;20073;-76
2022/10/26 04:48:02;;;;;;;20.85;14.15;;;9.80;99.90;;;;;;5103166;28;20039;-75
2022/10/26 04:54:14;;;;;;;20.50;13.53;;;9.50;99.90;;;;;;5053643;28;20065;-77
2022/10/26 04:57:00;;;;;;;27.35;15.98;;;9.50;99.90;;;;;;5095889;28;20298;-77
2022/10/26 04:59:42;;;;;;;27.50;15.57;;;9.60;99.90;;;;;;5087984;28;20036;-77
2022/10/26 05:02:08;;;;;;;25.40;16.63;;;9.40;99.90;;;;;;5093709;28;20034;-77
2022/10/26 05:04:34;;;;;;;23.42;16.25;;;9.90;99.90;;;;;;5094676;28;20111;-78
2022/10/26 05:07:10;;;;;;;22.73;14.20;;;9.60;99.90;;;;;;5088377;28;20042;-77
2022/10/26 05:09:42;;;;;;;23.55;14.77;;;9.80;99.90;;;;;;5111450;28;20048;-76
2022/10/26 05:12:13;;;;;;;24.50;15.73;;;10.30;99.90;;;;;;5093885;28;20046;-77
2022/10/26 05:14:41;;;;;;;28.52;17.35;;;9.70;99.90;;;;;;5093840;28;20102;-77
2022/10/26 05:17:07;;;;;;;25.63;15.93;;;10.30;99.90;;;;;;5105854;28;20059;-77
2022/10/26 05:19:54;;;;;;;21.90;15.38;;;10.30;99.90;;;;;;5073010;28;20028;-76
2022/10/26 05:22:23;;;;;;;24.67;16.02;;;9.20;99.90;;;;;;5077979;28;20311;-76
2022/10/26 05:24:51;;;;;;;21.85;15.23;;;10.10;99.90;;;;;;5108123;28;20031;-77
2022/10/26 05:27:20;;;;;;;27.48;15.88;;;8.40;99.90;;;;;;5108819;28;20241;-77
2022/10/26 05:29:45;;;;;;;31.27;17.48;;;10.70;99.90;;;;;;5088180;28;20118;-78
2022/10/26 05:32:11;;;;;;;24.10;16.75;;;10.00;99.90;;;;;;5087479;28;20043;-76
2022/10/26 05:34:40;;;;;;;24.10;15.38;;;10.00;99.90;;;;;;5114321;28;20027;-77
2022/10/26 05:37:05;;;;;;;24.95;16.08;;;10.40;99.90;;;;;;5100855;28;20070;-75
2022/10/26 05:39:31;;;;;;;22.73;15.75;;;10.30;99.90;;;;;;5103790;28;20032;-76
2022/10/26 05:41:57;;;;;;;22.13;16.08;;;10.40;99.90;;;;;;5127181;27;20032;-74
2022/10/26 05:44:22;;;;;;;29.98;17.95;;;10.40;99.90;;;;;;5084068;28;20170;-77
2022/10/26 05:46:48;;;;;;;27.38;17.08;;;10.60;99.90;;;;;;5093601;27;20035;-77
2022/10/26 05:49:14;;;;;;;23.27;16.52;;;10.70;99.90;;;;;;5093269;28;20036;-76
2022/10/26 05:51:46;;;;;;;26.73;16.85;;;10.50;99.90;;;;;;5111359;28;20725;-75
2022/10/26 05:54:11;;;;;;;21.70;15.85;;;10.70;99.90;;;;;;5082346;28;20059;-77
2022/10/26 05:56:41;;;;;;;22.90;14.85;;;10.70;99.90;;;;;;5083297;28;20044;-76
2022/10/26 05:59:13;;;;;;;25.08;15.70;;;10.50;99.90;;;;;;5100894;28;20032;-78
2022/10/26 06:02:04;;;;;;;22.60;13.63;;;10.70;99.90;;;;;;5106216;28;20253;-75
2022/10/26 06:05:04;;;;;;;20.85;15.10;;;10.50;99.90;;;;;;5099763;28;20032;-76
2022/10/26 06:07:29;;;;;;;19.10;13.93;;;10.80;99.90;;;;;;5111553;27;20039;-78
2022/10/26 06:09:56;;;;;;;17.75;12.73;;;10.90;99.90;;;;;;5092945;28;20028;-75
2022/10/26 06:12:24;;;;;;;18.88;13.68;;;10.70;99.90;;;;;;5110162;28;20237;-77
2022/10/26 06:14:50;;;;;;;21.27;14.93;;;10.50;99.90;;;;;;5114149;28;20094;-75
2022/10/26 06:17:39;;;;;;;22.80;13.48;;;10.60;99.90;;;;;;5082897;28;20412;-76
2022/10/26 06:20:07;;;;;;;22.02;14.73;;;10.60;99.90;;;;;;5103457;28;20039;-74
2022/10/26 06:23:00;;;;;;;20.58;14.70;;;10.80;99.90;;;;;;5113394;27;20077;-74
2022/10/26 06:25:34;;;;;;;21.90;14.40;;;10.50;99.90;;;;;;5107434;28;20023;-77
2022/10/26 06:28:07;;;;;;;;;;;11.10;99.90;;;;;;5115210;28;20094;-77
2022/10/26 06:30:33;;;;;;;19.13;12.25;;;10.60;99.90;;;;;;5107223;28;20106;-77
2022/10/26 06:33:00;;;;;;;15.45;11.20;;;10.70;99.90;;;;;;5080141;28;20062;-75
2022/10/26 06:35:42;;;;;;;21.60;12.35;;;10.80;99.90;;;;;;5084821;28;20290;-78
2022/10/26 06:38:17;;;;;;;19.70;13.80;;;10.70;99.90;;;;;;5110100;28;20229;-75
2022/10/26 06:40:46;;;;;;;20.02;14.02;;;10.50;99.90;;;;;;5100297;28;20024;-75
2022/10/26 06:43:22;;;;;;;20.67;13.20;;;10.60;99.90;;;;;;5116674;27;20044;-75
2022/10/26 06:46:13;;;;;;;20.23;11.73;;;10.50;99.90;;;;;;5102587;28;20039;-74
2022/10/26 06:49:01;;;;;;;21.10;13.45;;;10.60;99.90;;;;;;5090222;27;20594;-76
2022/10/26 06:51:29;;;;;;;15.55;11.25;;;10.60;99.90;;;;;;5108819;28;20036;-77
2022/10/26 06:54:13;;;;;;;17.77;12.60;;;11.00;99.90;;;;;;5094347;28;20226;-76
2022/10/26 06:56:39;;;;;;;19.42;12.65;;;10.70;99.90;;;;;;5110467;27;20080;-77
2022/10/26 06:59:40;;;;;;;17.20;11.88;;;10.70;99.90;;;;;;5089521;28;20031;-76
2022/10/26 07:02:11;;;;;;;16.77;10.98;;;10.90;99.90;;;;;;5079792;28;20036;-76
2022/10/26 07:04:40;;;;;;;20.67;14.25;;;12.20;99.90;;;;;;5108361;28;20103;-76
2022/10/26 07:07:13;;;;;;;16.83;11.73;;;11.30;99.90;;;;;;5083235;28;20229;-76
2022/10/26 07:09:38;;;;;;;18.77;11.75;;;11.10;99.90;;;;;;5098637;28;20035;-76
2022/10/26 07:12:04;;;;;;;15.52;10.88;;;10.90;99.90;;;;;;5093075;28;20297;-76
2022/10/26 07:14:30;;;;;;;15.60;11.80;;;11.10;99.90;;;;;;5092358;28;20061;-76
2022/10/26 07:16:55;;;;;;;19.27;12.23;;;11.20;99.90;;;;;;5087253;28;20353;-78
2022/10/26 07:19:22;;;;;;;11.38;7.93;;;11.00;99.90;;;;;;5104191;28;20043;-75
2022/10/26 07:21:47;;;;;;;19.20;10.77;;;11.20;99.90;;;;;;5101789;28;20183;-79
2022/10/26 07:24:13;;;;;;;12.77;10.13;;;11.20;99.90;;;;;;5093231;28;20044;-76
2022/10/26 07:26:39;;;;;;;16.58;10.57;;;11.20;99.90;;;;;;5116208;28;20042;-77
2022/10/26 07:29:04;;;;;;;17.63;10.95;;;11.10;99.90;;;;;;5080625;28;20049;-76
2022/10/26 07:31:30;;;;;;;11.82;9.95;;;11.40;99.90;;;;;;5083401;28;20032;-77
2022/10/26 07:33:56;;;;;;;13.80;9.13;;;11.20;99.90;;;;;;5082180;28;20031;-78
2022/10/26 07:36:22;;;;;;;12.98;8.30;;;11.20;99.90;;;;;;5119696;28;20070;-78
2022/10/26 07:38:51;;;;;;;12.25;8.32;;;11.30;99.90;;;;;;5092411;28;20032;-77
2022/10/26 07:41:17;;;;;;;15.98;10.60;;;11.60;99.90;;;;;;5087071;28;20043;-75
2022/10/26 07:43:44;;;;;;;14.38;8.68;;;11.60;99.90;;;;;;5086096;28;20034;-76
2022/10/26 07:46:11;;;;;;;13.27;9.50;;;11.60;99.90;;;;;;5093074;28;20070;-79
2022/10/26 07:48:44;;;;;;;11.23;8.52;;;11.50;99.90;;;;;;5106957;28;20028;-78
2022/10/26 07:51:10;;;;;;;15.50;9.70;;;11.60;99.90;;;;;;5083265;28;20028;-77
2022/10/26 07:53:53;;;;;;;17.98;10.23;;;11.50;99.90;;;;;;5085191;28;20059;-75
2022/10/26 07:56:40;;;;;;;14.75;10.68;;;11.80;99.90;;;;;;5106321;28;20106;-75
2022/10/26 07:59:18;;;;;;;15.63;9.90;;;11.70;99.90;;;;;;5086331;28;20043;-75
2022/10/26 08:01:46;;;;;;;15.00;9.15;;;12.40;99.90;;;;;;5102046;28;20289;-76
2022/10/26 08:04:17;;;;;;;15.95;10.05;;;11.20;99.90;;;;;;5086954;28;20032;-73
2022/10/26 08:06:43;;;;;;;13.05;9.02;;;12.00;99.90;;;;;;5107142;28;20047;-78
2022/10/26 08:09:14;;;;;;;12.90;8.65;;;12.30;99.90;;;;;;5091973;28;20050;-75
2022/10/26 08:11:55;;;;;;;11.93;9.40;;;12.20;99.90;;;;;;5092057;28;20027;-78
2022/10/26 08:15:22;;;;;;;12.68;8.00;;;12.10;99.90;;;;;;5102606;28;20037;-77
2022/10/26 08:17:53;;;;;;;11.48;7.10;;;12.70;99.90;;;;;;5041083;28;20079;-76
2022/10/26 08:20:22;;;;;;;13.00;7.63;;;12.00;99.90;;;;;;5090133;28;20051;-75
2022/10/26 08:22:48;;;;;;;13.65;8.38;;;12.10;99.90;;;;;;5094281;28;20040;-76
2022/10/26 08:25:23;;;;;;;12.63;9.05;;;12.20;99.90;;;;;;5091041;28;20064;-75
2022/10/26 08:28:17;;;;;;;12.63;7.97;;;14.00;99.90;;;;;;5099221;28;20191;-74
2022/10/26 08:30:43;;;;;;;11.43;8.00;;;12.70;99.90;;;;;;5109533;28;20030;-72
2022/10/26 08:33:09;;;;;;;11.98;7.50;;;12.40;99.90;;;;;;5081647;28;20110;-76
2022/10/26 08:35:35;;;;;;;10.45;7.10;;;12.50;99.90;;;;;;5080872;28;20040;-76
2022/10/26 08:38:01;;;;;;;8.43;6.30;;;12.60;99.90;;;;;;5097369;28;20183;-76
2022/10/26 08:40:30;;;;;;;9.82;7.18;;;12.90;99.90;;;;;;5113498;28;20037;-74
2022/10/26 08:43:14;;;;;;;9.25;7.07;;;13.10;99.90;;;;;;5101561;28;20087;-76
2022/10/26 08:49:58;;;;;;;10.10;5.60;;;13.60;99.90;;;;;;5118724;28;20080;-76
2022/10/26 08:52:31;;;;;;;8.35;5.88;;;13.70;99.90;;;;;;5111621;28;20023;-77
2022/10/26 08:54:59;;;;;;;9.95;5.55;;;14.10;99.90;;;;;;5103681;28;20052;-75
2022/10/26 08:57:30;;;;;;;5.20;4.65;;;14.40;99.90;;;;;;5101059;28;20052;-74
2022/10/26 09:00:10;;;;;;;6.50;4.55;;;14.40;99.90;;;;;;5099299;28;20039;-74
2022/10/26 09:02:36;;;;;;;11.43;5.20;;;14.40;99.90;;;;;;5071773;28;20062;-78
2022/10/26 09:05:04;;;;;;;9.73;3.97;;;14.40;99.90;;;;;;5075572;28;20226;-78
2022/10/26 09:07:56;;;;;;;6.25;4.10;;;14.30;99.90;;;;;;5095310;28;20237;-73
2022/10/26 09:10:30;;;;;;;6.40;4.00;;;14.60;99.90;;;;;;5095405;28;20226;-74
2022/10/26 09:13:40;;;;;;;4.78;3.90;;;14.40;99.90;;;;;;5110287;28;20031;-74
2022/10/26 09:16:24;;;;;;;7.72;4.57;;;14.60;99.90;;;;;;5053535;28;20228;-74
2022/10/26 09:19:36;;;;;;;7.32;4.40;;;14.50;99.90;;;;;;5088055;28;20319;-78
2022/10/26 09:41:04;;;;;;;6.20;3.35;;;14.40;99.90;;;;;;4850976;29;20044;-76
2022/10/26 09:43:41;;;;;;;6.93;3.97;;;15.90;99.90;;;;;;4832889;29;20036;-78
2022/10/26 09:46:17;;;;;;;5.80;3.75;;;15.80;99.90;;;;;;4865048;28;20106;-77
2022/10/26 09:49:10;;;;;;;6.63;3.45;;;16.00;99.90;;;;;;5107740;28;20040;-75
2022/10/26 09:51:38;;;;;;;7.07;3.83;;;15.90;99.90;;;;;;5104276;28;20070;-75
2022/10/26 09:54:16;;;;;;;4.43;3.20;;;16.10;99.90;;;;;;5093749;28;20346;-76
2022/10/26 09:57:05;;;;;;;5.28;3.65;;;15.90;99.90;;;;;;5114764;28;20043;-78
2022/10/26 09:59:35;;;;;;;4.28;3.63;;;16.10;99.90;;;;;;5074101;28;20048;-76
2022/10/26 10:02:32;;;;;;;5.60;3.08;;;16.00;99.90;;;;;;5093306;28;20063;-75
2022/10/26 10:04:58;;;;;;;3.80;3.22;;;16.00;99.90;;;;;;5090868;28;20234;-76
2022/10/26 10:07:23;;;;;;;5.57;2.97;;;16.10;99.90;;;;;;5093653;28;20043;-77
2022/10/26 10:10:22;;;;;;;5.68;3.92;;;15.90;99.90;;;;;;5099303;28;20089;-76
2022/10/26 10:12:51;;;;;;;4.63;3.65;;;16.10;99.90;;;;;;5096769;28;20043;-77
2022/10/26 10:15:21;;;;;;;5.22;3.55;;;16.10;99.90;;;;;;5114831;28;20069;-77
2022/10/26 10:17:49;;;;;;;4.72;3.47;;;16.20;99.90;;;;;;5108818;28;20040;-78
2022/10/26 10:20:29;;;;;;;4.63;2.80;;;16.30;99.90;;;;;;5119021;28;20056;-74
2022/10/26 10:23:04;;;;;;;4.20;2.95;;;16.30;99.90;;;;;;5129917;27;20268;-76
2022/10/26 10:29:02;;;;;;;7.07;2.90;;;16.60;99.90;;;;;;5101270;28;20315;-73
2022/10/26 10:31:32;;;;;;;4.35;2.25;;;16.80;99.90;;;;;;5085876;28;20027;-74
2022/10/26 10:33:58;;;;;;;6.03;2.92;;;16.80;99.90;;;;;;5099311;28;20039;-75
2022/10/26 10:37:15;;;;;;;7.60;2.65;;;16.80;99.90;;;;;;5104723;28;20044;-76
2022/10/26 10:39:41;;;;;;;3.33;2.50;;;16.80;99.90;;;;;;5058574;28;20262;-76
2022/10/26 10:42:17;;;;;;;3.47;2.30;;;16.80;99.90;;;;;;5105040;28;20250;-76
2022/10/26 10:44:45;;;;;;;4.40;2.20;;;16.60;99.90;;;;;;5089484;28;20081;-74
2022/10/26 10:47:20;;;;;;;4.93;2.40;;;16.70;99.90;;;;;;5097166;28;20035;-76
2022/10/26 10:50:15;;;;;;;6.18;2.60;;;16.70;99.90;;;;;;5121585;28;20031;-74
2022/10/26 10:52:41;;;;;;;4.78;2.45;;;16.70;99.90;;;;;;5096478;28;20226;-76
2022/10/26 10:55:12;;;;;;;5.43;2.75;;;16.60;99.90;;;;;;5086853;28;20059;-76
2022/10/26 10:57:47;;;;;;;2.83;1.92;;;16.60;99.90;;;;;;5101416;28;20119;-73
2022/10/26 11:00:15;;;;;;;7.80;2.42;;;16.60;99.90;;;;;;5101025;28;20047;-75
2022/10/26 11:02:49;;;;;;;5.85;2.50;;;16.60;99.90;;;;;;5101224;27;20040;-75
2022/10/26 11:05:32;;;;;;;;;;;16.60;99.90;;;;;;5101091;28;20055;-74
2022/10/26 11:08:06;;;;;;;4.45;2.58;;;16.60;99.90;;;;;;5102045;28;20011;-78
2022/10/26 11:10:46;;;;;;;5.03;2.30;;;16.70;99.90;;;;;;5102103;28;20103;-75
2022/10/26 11:13:42;;;;;;;9.40;3.50;;;16.80;99.90;;;;;;5103878;28;20067;-75
2022/10/26 11:16:22;;;;;;;3.90;2.22;;;16.90;99.90;;;;;;5095002;27;20036;-77
2022/10/26 11:18:50;;;;;;;7.85;2.95;;;17.00;99.90;;;;;;5104306;28;20277;-76
2022/10/26 11:21:27;;;;;;;3.83;2.58;;;17.00;99.90;;;;;;5104524;28;20040;-75
2022/10/26 11:24:12;;;;;;;5.57;2.85;;;17.00;99.90;;;;;;5108994;28;20039;-78
2022/10/26 11:27:15;;;;;;;4.38;2.35;;;17.00;99.90;;;;;;5099165;28;20088;-73
2022/10/26 11:30:17;;;;;;;3.97;2.45;;;17.20;99.90;;;;;;5102370;28;20032;-76
2022/10/26 11:33:14;;;;;;;3.63;2.20;;;17.20;99.90;;;;;;5103768;28;20034;-75
2022/10/26 11:36:05;;;;;;;3.30;2.00;;;17.30;99.90;;;;;;5102084;28;20036;-73
2022/10/26 11:39:00;;;;;;;5.72;2.80;;;17.40;99.90;;;;;;5101180;28;20047;-74
2022/10/26 11:41:39;;;;;;;;;;;17.30;99.90;;;;;;5100413;28;20036;-73
2022/10/26 11:44:29;;;;;;;4.38;2.40;;;17.30;99.90;;;;;;5117596;28;19919;-75
2022/10/26 11:47:04;;;;;;;4.18;2.47;;;17.30;99.90;;;;;;5084340;28;20039;-75
2022/10/26 11:49:36;;;;;;;6.05;2.40;;;17.30;99.90;;;;;;5099921;28;20237;-75
2022/10/26 11:52:42;;;;;;;4.90;2.70;;;17.40;99.90;;;;;;5082149;28;20032;-73
2022/10/26 11:55:10;;;;;;;6.85;3.08;;;17.40;99.90;;;;;;5082005;28;20048;-74
2022/10/26 11:57:36;;;;;;;5.82;2.67;;;17.40;99.90;;;;;;5107664;28;20051;-76
2022/10/26 12:00:47;;;;;;;5.68;2.13;;;17.40;99.90;;;;;;5119521;27;20231;-77
2022/10/26 12:03:20;;;;;;;3.10;2.55;;;17.40;99.90;;;;;;5089675;28;20219;-74
2022/10/26 12:05:50;;;;;;;4.60;2.60;;;17.50;99.90;;;;;;5105631;28;20039;-76
2022/10/26 12:08:23;;;;;;;6.05;2.83;;;17.50;99.90;;;;;;5088850;28;20040;-75
2022/10/26 12:11:00;;;;;;;6.57;2.80;;;17.50;99.90;;;;;;5091884;28;20066;-74
2022/10/26 12:13:34;;;;;;;5.18;2.95;;;17.60;99.90;;;;;;5104384;28;20031;-77
2022/10/26 12:16:09;;;;;;;;;;;17.60;99.90;;;;;;5108310;28;20043;-74
2022/10/26 12:18:50;;;;;;;5.05;2.60;;;17.70;99.90;;;;;;5107320;28;19965;-76
2022/10/26 12:21:25;;;;;;;4.78;2.80;;;17.80;99.90;;;;;;5105989;28;20054;-79
2022/10/26 12:23:59;;;;;;;6.65;2.70;;;17.80;99.90;;;;;;5103921;28;20040;-75
2022/10/26 12:26:25;;;;;;;10.60;3.00;;;17.90;99.90;;;;;;5127500;28;20036;-74
2022/10/26 12:29:03;;;;;;;3.80;2.60;;;18.00;99.90;;;;;;5102611;28;20303;-75
2022/10/26 12:31:31;;;;;;;5.28;2.65;;;17.90;99.90;;;;;;5089924;28;20024;-76
2022/10/26 12:33:58;;;;;;;3.30;2.53;;;18.00;99.90;;;;;;5102437;28;20366;-76
2022/10/26 12:37:10;;;;;;;4.38;2.80;;;18.20;99.90;;;;;;5109298;28;20050;-74
2022/10/26 12:39:39;;;;;;;6.30;3.10;;;18.10;99.90;;;;;;5094750;28;20509;-77
2022/10/26 12:42:04;;;;;;;6.20;2.85;;;18.20;99.90;;;;;;5099643;28;20032;-76
2022/10/26 12:44:46;;;;;;;4.45;2.60;;;18.10;99.90;;;;;;5106355;28;20087;-77
2022/10/26 12:47:47;;;;;;;6.75;2.80;;;18.10;99.90;;;;;;5111935;28;20043;-75
2022/10/26 12:50:12;;;;;;;5.50;2.10;;;18.10;99.90;;;;;;5060459;28;20040;-72
2022/10/26 12:53:08;;;;;;;5.43;2.83;;;18.00;99.90;;;;;;5099105;28;20342;-75
2022/10/26 12:55:42;;;;;;;6.88;3.00;;;18.00;99.90;;;;;;5102202;28;20244;-74
2022/10/26 12:58:13;;;;;;;5.63;2.65;;;17.40;99.90;;;;;;5102901;28;20051;-77
2022/10/26 13:00:54;;;;;;;3.67;2.22;;;18.00;99.90;;;;;;5086062;28;20116;-77
2022/10/26 13:03:35;;;;;;;5.47;2.47;;;18.10;99.90;;;;;;5102199;28;20059;-75
2022/10/26 13:06:28;;;;;;;4.82;2.10;;;18.00;99.90;;;;;;5114188;27;20027;-78
2022/10/26 13:08:56;;;;;;;4.53;2.60;;;18.00;99.90;;;;;;5124659;27;20035;-73
2022/10/26 13:15:54;;;;;;;4.80;2.67;;;18.00;99.90;;;;;;5030377;28;20068;-74
2022/10/26 13:18:21;;;;;;;3.78;2.45;;;18.00;99.90;;;;;;5091974;28;20070;-73
2022/10/26 13:21:12;;;;;;;7.20;3.08;;;18.00;99.90;;;;;;5092469;28;20231;-75
2022/10/26 13:23:43;;;;;;;5.75;2.67;;;18.00;99.90;;;;;;5084109;28;20136;-76
2022/10/26 13:26:20;;;;;;;5.03;2.78;;;17.90;99.90;;;;;;5108594;27;20077;-77
2022/10/26 13:28:49;;;;;;;3.42;2.35;;;17.90;99.90;;;;;;5142523;27;20205;-73
2022/10/26 13:31:27;;;;;;;8.18;2.88;;;17.90;99.90;;;;;;5096138;28;20077;-75
2022/10/26 13:34:00;;;;;;;4.45;3.08;;;17.90;99.90;;;;;;5084660;28;20231;-75
2022/10/26 13:36:52;;;;;;;5.80;2.53;;;17.90;99.90;;;;;;5101311;28;20042;-73
2022/10/26 13:39:35;;;;;;;8.43;3.38;;;17.80;99.90;;;;;;5084565;28;20043;-74
2022/10/26 13:42:01;;;;;;;6.43;3.30;;;17.80;99.90;;;;;;5101876;28;20032;-74
2022/10/26 13:45:09;;;;;;;9.10;3.58;;;17.80;99.90;;;;;;5084161;28;20043;-74
2022/10/26 13:48:05;;;;;;;5.70;2.80;;;17.80;99.90;;;;;;5083300;28;20111;-74
2022/10/26 13:50:36;;;;;;;4.72;2.53;;;17.80;99.90;;;;;;5118445;28;20073;-74
2022/10/26 13:53:25;;;;;;;9.90;2.85;;;17.80;99.90;;;;;;5101921;28;20046;-76
2022/10/26 13:55:58;;;;;;;5.82;2.85;;;17.80;99.90;;;;;;5100908;28;20325;-76
2022/10/26 13:58:41;;;;;;;8.02;3.45;;;17.80;99.90;;;;;;5121102;28;20043;-77
2022/10/26 14:01:10;;;;;;;6.10;3.30;;;17.90;99.90;;;;;;5119542;28;20046;-75
2022/10/26 14:03:55;;;;;;;6.25;3.75;;;17.80;99.90;;;;;;5121024;28;20051;-76
2022/10/26 14:09:55;;;;;;;6.28;3.53;;;17.60;99.90;;;;;;5091286;28;20223;-75
2022/10/26 14:12:22;;;;;;;8.90;3.97;;;17.60;99.90;;;;;;5110952;27;20067;-75